sensor_id;sensor_type;location;lat;lon;timestamp;temperature;humidity
831;DHT22;397;50.564;7.272;2023-04-16T00:00:00;9.20;99.90
831;DHT22;397;50.564;7.272;2023-04-16T00:02:29;9.20;99.90
831;DHT22;397;50.564;7.272;2023-04-16T00:04:57;9.20;99.90
831;DHT22;397;50.564;7.272;2023-04-16T00:07:25;9.20;99.90
831;DHT22;397;50.564;7.272;2023-04-16T00:09:52;9.20;99.90
831;DHT22;397;50.564;7.272;2023-04-16T00:12:20;9.10;99.90
831;DHT22;397;50.564;7.272;2023-04-16T00:14:47;9.10;99.90
831;DHT22;397;50.564;7.272;2023-04-16T00:17:15;9.10;99.90
831;DHT22;397;50.564;7.272;2023-04-16T00:19:42;9.00;99.90
831;DHT22;397;50.564;7.272;2023-04-16T00:22:10;9.00;99.90
831;DHT22;397;50.564;7.272;2023-04-16T00:24:37;9.10;99.90
831;DHT22;397;50.564;7.272;2023-04-16T00:27:05;9.00;99.90
831;DHT22;397;50.564;7.272;2023-04-16T00:29:33;9.10;99.90
831;DHT22;397;50.564;7.272;2023-04-16T00:32:01;9.10;99.90
831;DHT22;397;50.564;7.272;2023-04-16T00:34:28;9.10;99.90
831;DHT22;397;50.564;7.272;2023-04-16T00:36:56;9.00;99.90
831;DHT22;397;50.564;7.272;2023-04-16T00:39:23;9.00;99.90
831;DHT22;397;50.564;7.272;2023-04-16T00:41:51;9.10;99.90
831;DHT22;397;50.564;7.272;2023-04-16T00:44:18;9.10;99.90
831;DHT22;397;50.564;7.272;2023-04-16T00:46:46;9.00;99.90
831;DHT22;397;50.564;7.272;2023-04-16T00:49:14;8.90;99.90
831;DHT22;397;50.564;7.272;2023-04-16T00:51:42;8.80;99.90
831;DHT22;397;50.564;7.272;2023-04-16T00:54:09;9.00;99.90
831;DHT22;397;50.564;7.272;2023-04-16T00:56:37;8.90;99.90
831;DHT22;397;50.564;7.272;2023-04-16T00:59:05;8.90;99.90
831;DHT22;397;50.564;7.272;2023-04-16T01:01:32;8.90;99.90
831;DHT22;397;50.564;7.272;2023-04-16T01:04:00;8.90;99.90
831;DHT22;397;50.564;7.272;2023-04-16T01:06:27;8.90;99.90
831;DHT22;397;50.564;7.272;2023-04-16T01:08:55;8.90;99.90
831;DHT22;397;50.564;7.272;2023-04-16T01:11:22;8.90;99.90
831;DHT22;397;50.564;7.272;2023-04-16T01:13:50;9.00;99.90
831;DHT22;397;50.564;7.272;2023-04-16T01:16:17;8.90;99.90
831;DHT22;397;50.564;7.272;2023-04-16T01:18:45;9.00;99.90
831;DHT22;397;50.564;7.272;2023-04-16T01:21:12;8.90;99.90
831;DHT22;397;50.564;7.272;2023-04-16T01:23:40;9.00;99.90
831;DHT22;397;50.564;7.272;2023-04-16T01:26:08;9.00;99.90
831;DHT22;397;50.564;7.272;2023-04-16T01:28:35;9.10;99.90
831;DHT22;397;50.564;7.272;2023-04-16T01:31:02;9.10;99.90
831;DHT22;397;50.564;7.272;2023-04-16T01:33:30;8.90;99.90
831;DHT22;397;50.564;7.272;2023-04-16T01:35:57;8.90;99.90
831;DHT22;397;50.564;7.272;2023-04-16T01:38:25;8.90;99.90
831;DHT22;397;50.564;7.272;2023-04-16T01:40:56;8.90;99.90
831;DHT22;397;50.564;7.272;2023-04-16T01:43:24;8.90;99.90
831;DHT22;397;50.564;7.272;2023-04-16T01:46:10;8.90;99.90
831;DHT22;397;50.564;7.272;2023-04-16T01:48:22;8.80;99.90
831;DHT22;397;50.564;7.272;2023-04-16T01:50:50;8.90;99.90
831;DHT22;397;50.564;7.272;2023-04-16T01:53:18;8.90;99.90
831;DHT22;397;50.564;7.272;2023-04-16T01:55:45;9.00;99.90
831;DHT22;397;50.564;7.272;2023-04-16T01:58:12;9.00;99.90
831;DHT22;397;50.564;7.272;2023-04-16T02:00:40;9.00;99.90
831;DHT22;397;50.564;7.272;2023-04-16T02:03:08;8.80;99.90
831;DHT22;397;50.564;7.272;2023-04-16T02:05:36;8.80;99.90
831;DHT22;397;50.564;7.272;2023-04-16T02:08:03;8.90;99.90
831;DHT22;397;50.564;7.272;2023-04-16T02:10:31;8.90;99.90
831;DHT22;397;50.564;7.272;2023-04-16T02:12:58;8.90;99.90
831;DHT22;397;50.564;7.272;2023-04-16T02:15:26;8.80;99.90
831;DHT22;397;50.564;7.272;2023-04-16T02:17:53;8.80;99.90
831;DHT22;397;50.564;7.272;2023-04-16T02:20:22;8.90;99.90
831;DHT22;397;50.564;7.272;2023-04-16T02:22:50;8.90;99.90
831;DHT22;397;50.564;7.272;2023-04-16T02:25:17;8.80;99.90
831;DHT22;397;50.564;7.272;2023-04-16T02:27:45;8.80;99.90
831;DHT22;397;50.564;7.272;2023-04-16T02:30:12;8.80;99.90
831;DHT22;397;50.564;7.272;2023-04-16T02:32:40;8.80;99.90
831;DHT22;397;50.564;7.272;2023-04-16T02:35:07;8.70;99.90
831;DHT22;397;50.564;7.272;2023-04-16T02:37:35;8.70;99.90
831;DHT22;397;50.564;7.272;2023-04-16T02:40:02;8.70;99.90
831;DHT22;397;50.564;7.272;2023-04-16T02:42:30;8.80;99.90
831;DHT22;397;50.564;7.272;2023-04-16T02:44:57;8.80;99.90
831;DHT22;397;50.564;7.272;2023-04-16T02:47:25;8.90;99.90
831;DHT22;397;50.564;7.272;2023-04-16T02:49:52;8.90;99.90
831;DHT22;397;50.564;7.272;2023-04-16T02:52:20;8.90;99.90
831;DHT22;397;50.564;7.272;2023-04-16T02:54:47;8.80;99.90
831;DHT22;397;50.564;7.272;2023-04-16T02:57:15;8.80;99.90
831;DHT22;397;50.564;7.272;2023-04-16T02:59:42;8.80;99.90
831;DHT22;397;50.564;7.272;2023-04-16T03:02:10;8.90;99.90
831;DHT22;397;50.564;7.272;2023-04-16T03:04:37;9.00;99.90
831;DHT22;397;50.564;7.272;2023-04-16T03:07:05;8.90;99.90
831;DHT22;397;50.564;7.272;2023-04-16T03:09:33;8.90;99.90
831;DHT22;397;50.564;7.272;2023-04-16T03:12:01;9.00;99.90
831;DHT22;397;50.564;7.272;2023-04-16T03:14:28;9.00;99.90
831;DHT22;397;50.564;7.272;2023-04-16T03:16:57;8.90;99.90
831;DHT22;397;50.564;7.272;2023-04-16T03:19:24;8.80;99.90
831;DHT22;397;50.564;7.272;2023-04-16T03:21:52;8.80;99.90
831;DHT22;397;50.564;7.272;2023-04-16T03:24:19;8.80;99.90
831;DHT22;397;50.564;7.272;2023-04-16T03:26:47;8.80;99.90
831;DHT22;397;50.564;7.272;2023-04-16T03:29:14;8.80;99.90
831;DHT22;397;50.564;7.272;2023-04-16T03:31:42;8.80;99.90
831;DHT22;397;50.564;7.272;2023-04-16T03:34:09;8.80;99.90
831;DHT22;397;50.564;7.272;2023-04-16T03:36:37;8.90;99.90
831;DHT22;397;50.564;7.272;2023-04-16T03:39:05;8.90;99.90
831;DHT22;397;50.564;7.272;2023-04-16T03:41:32;8.90;99.90
831;DHT22;397;50.564;7.272;2023-04-16T03:44:00;8.90;99.90
831;DHT22;397;50.564;7.272;2023-04-16T03:46:27;8.90;99.90
831;DHT22;397;50.564;7.272;2023-04-16T03:48:55;8.90;99.90
831;DHT22;397;50.564;7.272;2023-04-16T03:51:22;8.90;99.90
831;DHT22;397;50.564;7.272;2023-04-16T03:53:50;8.80;99.90
831;DHT22;397;50.564;7.272;2023-04-16T03:56:17;8.90;99.90
831;DHT22;397;50.564;7.272;2023-04-16T03:58:45;9.00;99.90
831;DHT22;397;50.564;7.272;2023-04-16T04:01:12;9.00;99.90
831;DHT22;397;50.564;7.272;2023-04-16T04:03:40;9.00;99.90
831;DHT22;397;50.564;7.272;2023-04-16T04:06:08;8.90;99.90
831;DHT22;397;50.564;7.272;2023-04-16T04:08:36;9.00;99.90
831;DHT22;397;50.564;7.272;2023-04-16T04:11:03;8.90;99.90
831;DHT22;397;50.564;7.272;2023-04-16T04:13:31;9.00;99.90
831;DHT22;397;50.564;7.272;2023-04-16T04:15:58;9.00;99.90
831;DHT22;397;50.564;7.272;2023-04-16T04:18:26;9.00;99.90
831;DHT22;397;50.564;7.272;2023-04-16T04:20:53;9.10;99.90
831;DHT22;397;50.564;7.272;2023-04-16T04:23:21;9.10;99.90
831;DHT22;397;50.564;7.272;2023-04-16T04:25:48;9.00;99.90
831;DHT22;397;50.564;7.272;2023-04-16T04:28:16;8.90;99.90
831;DHT22;397;50.564;7.272;2023-04-16T04:30:43;8.80;99.90
831;DHT22;397;50.564;7.272;2023-04-16T04:33:11;8.80;99.90
831;DHT22;397;50.564;7.272;2023-04-16T04:35:38;8.90;99.90
831;DHT22;397;50.564;7.272;2023-04-16T04:38:06;8.90;99.90
831;DHT22;397;50.564;7.272;2023-04-16T04:40:33;8.90;99.90
831;DHT22;397;50.564;7.272;2023-04-16T04:43:01;8.80;99.90
831;DHT22;397;50.564;7.272;2023-04-16T04:45:28;8.90;99.90
831;DHT22;397;50.564;7.272;2023-04-16T04:47:56;8.90;99.90
831;DHT22;397;50.564;7.272;2023-04-16T04:50:24;8.80;99.90
831;DHT22;397;50.564;7.272;2023-04-16T04:52:51;8.80;99.90
831;DHT22;397;50.564;7.272;2023-04-16T04:55:19;8.80;99.90
831;DHT22;397;50.564;7.272;2023-04-16T04:57:48;8.80;99.90
831;DHT22;397;50.564;7.272;2023-04-16T05:00:16;8.80;99.90
831;DHT22;397;50.564;7.272;2023-04-16T05:02:43;8.90;99.90
831;DHT22;397;50.564;7.272;2023-04-16T05:05:11;8.70;99.90
831;DHT22;397;50.564;7.272;2023-04-16T05:07:38;8.80;99.90
831;DHT22;397;50.564;7.272;2023-04-16T05:10:07;8.90;99.90
831;DHT22;397;50.564;7.272;2023-04-16T05:12:35;8.90;99.90
831;DHT22;397;50.564;7.272;2023-04-16T05:15:02;8.90;99.90
831;DHT22;397;50.564;7.272;2023-04-16T05:17:30;8.90;99.90
831;DHT22;397;50.564;7.272;2023-04-16T05:19:57;8.90;99.90
831;DHT22;397;50.564;7.272;2023-04-16T05:22:25;8.90;99.90
831;DHT22;397;50.564;7.272;2023-04-16T05:24:52;9.00;99.90
831;DHT22;397;50.564;7.272;2023-04-16T05:27:20;9.00;99.90
831;DHT22;397;50.564;7.272;2023-04-16T05:29:47;9.00;99.90
831;DHT22;397;50.564;7.272;2023-04-16T05:32:15;8.90;99.90
831;DHT22;397;50.564;7.272;2023-04-16T05:34:42;8.80;99.90
831;DHT22;397;50.564;7.272;2023-04-16T05:37:10;8.90;99.90
831;DHT22;397;50.564;7.272;2023-04-16T05:39:37;9.00;99.90
831;DHT22;397;50.564;7.272;2023-04-16T05:42:05;9.00;99.90
831;DHT22;397;50.564;7.272;2023-04-16T05:44:32;9.10;99.90
831;DHT22;397;50.564;7.272;2023-04-16T05:47:00;9.10;99.90
831;DHT22;397;50.564;7.272;2023-04-16T05:49:27;9.10;99.90
831;DHT22;397;50.564;7.272;2023-04-16T05:51:55;9.10;99.90
831;DHT22;397;50.564;7.272;2023-04-16T05:54:22;9.10;99.90
831;DHT22;397;50.564;7.272;2023-04-16T05:56:50;9.20;99.90
831;DHT22;397;50.564;7.272;2023-04-16T05:59:17;9.20;99.90
831;DHT22;397;50.564;7.272;2023-04-16T06:01:45;9.10;99.90
831;DHT22;397;50.564;7.272;2023-04-16T06:04:12;9.00;99.90
831;DHT22;397;50.564;7.272;2023-04-16T06:06:40;9.00;99.90
831;DHT22;397;50.564;7.272;2023-04-16T06:09:07;9.00;99.90
831;DHT22;397;50.564;7.272;2023-04-16T06:11:35;9.00;99.90
831;DHT22;397;50.564;7.272;2023-04-16T06:14:03;9.00;99.90
831;DHT22;397;50.564;7.272;2023-04-16T06:16:30;9.10;99.90
831;DHT22;397;50.564;7.272;2023-04-16T06:18:58;9.00;99.90
831;DHT22;397;50.564;7.272;2023-04-16T06:21:25;9.10;99.90
831;DHT22;397;50.564;7.272;2023-04-16T06:23:54;9.00;99.90
831;DHT22;397;50.564;7.272;2023-04-16T06:26:21;9.10;99.90
831;DHT22;397;50.564;7.272;2023-04-16T06:28:49;9.10;99.90
831;DHT22;397;50.564;7.272;2023-04-16T06:31:16;9.20;99.90
831;DHT22;397;50.564;7.272;2023-04-16T06:33:44;9.20;99.90
831;DHT22;397;50.564;7.272;2023-04-16T06:36:11;9.30;99.90
831;DHT22;397;50.564;7.272;2023-04-16T06:38:39;9.20;99.90
831;DHT22;397;50.564;7.272;2023-04-16T06:41:06;9.20;99.90
831;DHT22;397;50.564;7.272;2023-04-16T06:43:34;9.30;99.90
831;DHT22;397;50.564;7.272;2023-04-16T06:46:01;9.40;99.90
831;DHT22;397;50.564;7.272;2023-04-16T06:48:29;9.30;99.90
831;DHT22;397;50.564;7.272;2023-04-16T06:50:56;9.20;99.90
831;DHT22;397;50.564;7.272;2023-04-16T06:53:24;9.30;99.90
831;DHT22;397;50.564;7.272;2023-04-16T06:55:51;9.30;99.90
831;DHT22;397;50.564;7.272;2023-04-16T06:58:19;9.30;99.90
831;DHT22;397;50.564;7.272;2023-04-16T07:00:47;9.20;99.90
831;DHT22;397;50.564;7.272;2023-04-16T07:03:15;9.30;99.90
831;DHT22;397;50.564;7.272;2023-04-16T07:05:42;9.30;99.90
831;DHT22;397;50.564;7.272;2023-04-16T07:08:10;9.30;99.90
831;DHT22;397;50.564;7.272;2023-04-16T07:10:37;9.20;99.90
831;DHT22;397;50.564;7.272;2023-04-16T07:13:05;9.30;99.90
831;DHT22;397;50.564;7.272;2023-04-16T07:15:32;9.40;99.90
831;DHT22;397;50.564;7.272;2023-04-16T07:18:00;9.40;99.90
831;DHT22;397;50.564;7.272;2023-04-16T07:20:27;9.50;99.90
831;DHT22;397;50.564;7.272;2023-04-16T07:22:55;9.50;99.90
831;DHT22;397;50.564;7.272;2023-04-16T07:25:24;9.60;99.90
831;DHT22;397;50.564;7.272;2023-04-16T07:27:52;9.50;99.90
831;DHT22;397;50.564;7.272;2023-04-16T07:30:19;9.60;99.90
831;DHT22;397;50.564;7.272;2023-04-16T07:32:47;9.60;99.90
831;DHT22;397;50.564;7.272;2023-04-16T07:35:14;9.60;99.90
831;DHT22;397;50.564;7.272;2023-04-16T07:37:42;9.60;99.90
831;DHT22;397;50.564;7.272;2023-04-16T07:40:10;9.70;99.90
831;DHT22;397;50.564;7.272;2023-04-16T07:42:37;9.70;99.90
831;DHT22;397;50.564;7.272;2023-04-16T07:45:05;9.70;99.90
831;DHT22;397;50.564;7.272;2023-04-16T07:47:33;9.70;99.90
831;DHT22;397;50.564;7.272;2023-04-16T07:50:01;9.70;99.90
831;DHT22;397;50.564;7.272;2023-04-16T07:52:29;9.60;99.90
831;DHT22;397;50.564;7.272;2023-04-16T07:54:56;9.70;99.90
831;DHT22;397;50.564;7.272;2023-04-16T07:57:24;9.80;99.90
831;DHT22;397;50.564;7.272;2023-04-16T07:59:51;9.70;99.90
831;DHT22;397;50.564;7.272;2023-04-16T08:02:19;9.50;99.90
831;DHT22;397;50.564;7.272;2023-04-16T08:04:46;9.60;99.90
831;DHT22;397;50.564;7.272;2023-04-16T08:07:14;9.60;99.90
831;DHT22;397;50.564;7.272;2023-04-16T08:09:51;9.60;99.90
831;DHT22;397;50.564;7.272;2023-04-16T08:12:19;9.60;99.90
831;DHT22;397;50.564;7.272;2023-04-16T08:14:47;9.50;99.90
831;DHT22;397;50.564;7.272;2023-04-16T08:17:15;9.50;99.90
831;DHT22;397;50.564;7.272;2023-04-16T08:19:43;9.60;99.90
831;DHT22;397;50.564;7.272;2023-04-16T08:22:11;9.70;99.90
831;DHT22;397;50.564;7.272;2023-04-16T08:24:39;9.60;99.90
831;DHT22;397;50.564;7.272;2023-04-16T08:27:07;9.60;99.90
831;DHT22;397;50.564;7.272;2023-04-16T08:29:36;9.70;99.90
831;DHT22;397;50.564;7.272;2023-04-16T08:32:03;9.70;99.90
831;DHT22;397;50.564;7.272;2023-04-16T08:34:32;9.80;99.90
831;DHT22;397;50.564;7.272;2023-04-16T08:36:59;10.00;99.90
831;DHT22;397;50.564;7.272;2023-04-16T08:39:27;10.00;99.90
831;DHT22;397;50.564;7.272;2023-04-16T08:41:54;10.10;99.90
831;DHT22;397;50.564;7.272;2023-04-16T08:44:25;10.10;99.90
831;DHT22;397;50.564;7.272;2023-04-16T08:46:54;10.00;99.90
831;DHT22;397;50.564;7.272;2023-04-16T08:49:25;10.00;99.90
831;DHT22;397;50.564;7.272;2023-04-16T08:51:56;10.00;99.90
831;DHT22;397;50.564;7.272;2023-04-16T08:54:38;10.10;99.90
831;DHT22;397;50.564;7.272;2023-04-16T08:57:05;10.20;99.90
831;DHT22;397;50.564;7.272;2023-04-16T08:59:33;10.20;99.90
831;DHT22;397;50.564;7.272;2023-04-16T09:02:01;10.20;99.90
831;DHT22;397;50.564;7.272;2023-04-16T09:04:31;10.10;99.90
831;DHT22;397;50.564;7.272;2023-04-16T09:06:58;10.00;99.90
831;DHT22;397;50.564;7.272;2023-04-16T09:09:27;10.10;99.90
831;DHT22;397;50.564;7.272;2023-04-16T09:11:55;10.00;99.90
831;DHT22;397;50.564;7.272;2023-04-16T09:14:23;10.10;99.90
831;DHT22;397;50.564;7.272;2023-04-16T09:16:52;10.10;99.90
831;DHT22;397;50.564;7.272;2023-04-16T09:19:21;10.10;99.90
831;DHT22;397;50.564;7.272;2023-04-16T09:21:49;10.10;99.90
831;DHT22;397;50.564;7.272;2023-04-16T09:24:17;10.30;99.90
831;DHT22;397;50.564;7.272;2023-04-16T09:26:45;10.30;99.90
831;DHT22;397;50.564;7.272;2023-04-16T09:29:38;10.20;99.90
831;DHT22;397;50.564;7.272;2023-04-16T09:32:01;10.30;99.90
831;DHT22;397;50.564;7.272;2023-04-16T09:37:19;10.50;99.90
831;DHT22;397;50.564;7.272;2023-04-16T09:39:57;10.60;99.90
831;DHT22;397;50.564;7.272;2023-04-16T09:42:26;10.60;99.90
831;DHT22;397;50.564;7.272;2023-04-16T09:44:55;10.70;99.90
831;DHT22;397;50.564;7.272;2023-04-16T09:47:24;10.70;99.90
831;DHT22;397;50.564;7.272;2023-04-16T09:49:52;10.60;99.90
831;DHT22;397;50.564;7.272;2023-04-16T09:52:21;10.50;99.90
831;DHT22;397;50.564;7.272;2023-04-16T09:54:52;10.50;99.90
831;DHT22;397;50.564;7.272;2023-04-16T09:57:23;10.60;99.90
831;DHT22;397;50.564;7.272;2023-04-16T10:00:02;10.50;99.90
831;DHT22;397;50.564;7.272;2023-04-16T10:02:30;10.60;99.90
831;DHT22;397;50.564;7.272;2023-04-16T10:05:01;10.60;99.90
831;DHT22;397;50.564;7.272;2023-04-16T10:07:34;10.60;99.90
831;DHT22;397;50.564;7.272;2023-04-16T10:10:02;10.60;99.90
831;DHT22;397;50.564;7.272;2023-04-16T10:12:30;10.50;99.90
831;DHT22;397;50.564;7.272;2023-04-16T10:14:58;10.50;99.90
831;DHT22;397;50.564;7.272;2023-04-16T10:17:26;10.40;99.90
831;DHT22;397;50.564;7.272;2023-04-16T10:19:57;10.60;99.90
831;DHT22;397;50.564;7.272;2023-04-16T10:22:25;10.70;99.90
831;DHT22;397;50.564;7.272;2023-04-16T10:24:52;11.20;99.90
831;DHT22;397;50.564;7.272;2023-04-16T10:27:21;11.60;99.90
831;DHT22;397;50.564;7.272;2023-04-16T10:29:49;11.90;99.90
831;DHT22;397;50.564;7.272;2023-04-16T10:32:17;12.00;99.90
831;DHT22;397;50.564;7.272;2023-04-16T10:34:47;11.90;99.90
831;DHT22;397;50.564;7.272;2023-04-16T10:37:15;11.80;99.90
831;DHT22;397;50.564;7.272;2023-04-16T10:39:44;11.80;99.90
831;DHT22;397;50.564;7.272;2023-04-16T10:42:12;11.80;99.90
831;DHT22;397;50.564;7.272;2023-04-16T10:44:40;11.70;99.90
831;DHT22;397;50.564;7.272;2023-04-16T10:47:11;11.60;99.90
831;DHT22;397;50.564;7.272;2023-04-16T10:49:40;11.60;99.90
831;DHT22;397;50.564;7.272;2023-04-16T10:52:11;11.50;99.90
831;DHT22;397;50.564;7.272;2023-04-16T10:54:40;11.50;99.90
831;DHT22;397;50.564;7.272;2023-04-16T10:57:09;11.50;99.90
831;DHT22;397;50.564;7.272;2023-04-16T10:59:38;11.50;99.90
831;DHT22;397;50.564;7.272;2023-04-16T11:02:11;11.40;99.90
831;DHT22;397;50.564;7.272;2023-04-16T11:04:38;11.40;99.90
831;DHT22;397;50.564;7.272;2023-04-16T11:09:46;11.40;99.90
831;DHT22;397;50.564;7.272;2023-04-16T11:12:20;11.50;99.90
831;DHT22;397;50.564;7.272;2023-04-16T11:14:57;11.60;99.90
831;DHT22;397;50.564;7.272;2023-04-16T11:17:21;11.70;99.90
831;DHT22;397;50.564;7.272;2023-04-16T11:19:49;11.70;99.90
831;DHT22;397;50.564;7.272;2023-04-16T11:22:17;11.80;99.90
831;DHT22;397;50.564;7.272;2023-04-16T11:24:46;11.90;99.90
831;DHT22;397;50.564;7.272;2023-04-16T11:27:14;11.80;99.90
831;DHT22;397;50.564;7.272;2023-04-16T11:29:42;11.70;99.90
831;DHT22;397;50.564;7.272;2023-04-16T11:32:09;11.80;99.90
831;DHT22;397;50.564;7.272;2023-04-16T11:34:46;11.80;99.90
831;DHT22;397;50.564;7.272;2023-04-16T11:37:14;11.90;99.90
831;DHT22;397;50.564;7.272;2023-04-16T11:39:49;11.70;99.90
831;DHT22;397;50.564;7.272;2023-04-16T11:42:18;11.60;99.90
831;DHT22;397;50.564;7.272;2023-04-16T11:44:54;11.70;99.90
831;DHT22;397;50.564;7.272;2023-04-16T11:47:23;11.80;99.90
831;DHT22;397;50.564;7.272;2023-04-16T11:49:51;11.80;99.90
831;DHT22;397;50.564;7.272;2023-04-16T11:52:29;11.90;99.90
831;DHT22;397;50.564;7.272;2023-04-16T11:54:58;12.10;99.90
831;DHT22;397;50.564;7.272;2023-04-16T11:57:28;12.20;99.90
831;DHT22;397;50.564;7.272;2023-04-16T11:59:57;12.20;99.90
831;DHT22;397;50.564;7.272;2023-04-16T12:02:39;12.30;99.90
831;DHT22;397;50.564;7.272;2023-04-16T12:07:58;12.30;99.90
831;DHT22;397;50.564;7.272;2023-04-16T12:10:28;12.20;99.90
831;DHT22;397;50.564;7.272;2023-04-16T12:13:12;12.10;99.90
831;DHT22;397;50.564;7.272;2023-04-16T12:15:45;12.10;99.90
831;DHT22;397;50.564;7.272;2023-04-16T12:18:13;12.00;99.90
831;DHT22;397;50.564;7.272;2023-04-16T12:20:43;11.90;99.90
831;DHT22;397;50.564;7.272;2023-04-16T12:23:25;11.90;99.90
831;DHT22;397;50.564;7.272;2023-04-16T12:25:54;12.00;99.90
831;DHT22;397;50.564;7.272;2023-04-16T12:28:32;12.20;99.90
831;DHT22;397;50.564;7.272;2023-04-16T12:31:01;12.30;99.90
831;DHT22;397;50.564;7.272;2023-04-16T12:33:29;12.60;99.90
831;DHT22;397;50.564;7.272;2023-04-16T12:35:56;12.70;99.90
831;DHT22;397;50.564;7.272;2023-04-16T12:38:24;12.90;99.90
831;DHT22;397;50.564;7.272;2023-04-16T12:40:52;13.10;99.90
831;DHT22;397;50.564;7.272;2023-04-16T12:43:22;13.30;99.90
831;DHT22;397;50.564;7.272;2023-04-16T12:45:49;13.30;99.90
831;DHT22;397;50.564;7.272;2023-04-16T12:48:17;13.30;99.90
831;DHT22;397;50.564;7.272;2023-04-16T12:50:44;13.20;99.90
831;DHT22;397;50.564;7.272;2023-04-16T12:53:12;13.10;99.90
831;DHT22;397;50.564;7.272;2023-04-16T12:55:39;13.00;99.90
831;DHT22;397;50.564;7.272;2023-04-16T12:58:07;12.90;99.90
831;DHT22;397;50.564;7.272;2023-04-16T13:00:35;12.80;99.90
831;DHT22;397;50.564;7.272;2023-04-16T13:03:03;12.80;99.90
831;DHT22;397;50.564;7.272;2023-04-16T13:05:30;12.80;99.90
831;DHT22;397;50.564;7.272;2023-04-16T13:07:58;12.80;99.90
831;DHT22;397;50.564;7.272;2023-04-16T13:10:25;12.70;99.90
831;DHT22;397;50.564;7.272;2023-04-16T13:12:53;12.80;99.90
831;DHT22;397;50.564;7.272;2023-04-16T13:15:21;12.70;99.90
831;DHT22;397;50.564;7.272;2023-04-16T13:17:48;12.70;99.90
831;DHT22;397;50.564;7.272;2023-04-16T13:20:16;12.80;99.90
831;DHT22;397;50.564;7.272;2023-04-16T13:22:43;12.80;99.90
831;DHT22;397;50.564;7.272;2023-04-16T13:25:11;12.80;99.90
831;DHT22;397;50.564;7.272;2023-04-16T13:27:39;13.00;99.90
831;DHT22;397;50.564;7.272;2023-04-16T13:30:07;13.30;99.90
831;DHT22;397;50.564;7.272;2023-04-16T13:32:34;13.60;99.90
831;DHT22;397;50.564;7.272;2023-04-16T13:35:02;13.80;99.90
831;DHT22;397;50.564;7.272;2023-04-16T13:37:30;13.60;99.90
831;DHT22;397;50.564;7.272;2023-04-16T13:39:57;13.60;99.90
831;DHT22;397;50.564;7.272;2023-04-16T13:42:24;13.60;99.90
831;DHT22;397;50.564;7.272;2023-04-16T13:44:52;13.40;99.90
831;DHT22;397;50.564;7.272;2023-04-16T13:47:20;13.50;99.90
831;DHT22;397;50.564;7.272;2023-04-16T13:49:48;13.40;99.90
831;DHT22;397;50.564;7.272;2023-04-16T13:52:15;13.50;99.90
831;DHT22;397;50.564;7.272;2023-04-16T13:54:43;13.70;99.90
831;DHT22;397;50.564;7.272;2023-04-16T13:57:10;13.90;99.90
831;DHT22;397;50.564;7.272;2023-04-16T13:59:38;14.00;99.90
831;DHT22;397;50.564;7.272;2023-04-16T14:02:05;13.80;99.90
831;DHT22;397;50.564;7.272;2023-04-16T14:04:33;13.70;99.90
831;DHT22;397;50.564;7.272;2023-04-16T14:07:01;13.50;99.90
831;DHT22;397;50.564;7.272;2023-04-16T14:09:28;13.50;99.90
831;DHT22;397;50.564;7.272;2023-04-16T14:11:56;13.50;99.90
831;DHT22;397;50.564;7.272;2023-04-16T14:14:24;13.60;99.90
831;DHT22;397;50.564;7.272;2023-04-16T14:16:53;13.70;99.90
831;DHT22;397;50.564;7.272;2023-04-16T14:19:21;13.90;99.90
831;DHT22;397;50.564;7.272;2023-04-16T14:21:48;14.00;99.90
831;DHT22;397;50.564;7.272;2023-04-16T14:24:16;14.20;99.90
831;DHT22;397;50.564;7.272;2023-04-16T14:26:43;13.90;99.90
831;DHT22;397;50.564;7.272;2023-04-16T14:29:11;13.90;99.90
831;DHT22;397;50.564;7.272;2023-04-16T14:31:38;14.00;99.90
831;DHT22;397;50.564;7.272;2023-04-16T14:34:06;14.10;99.90
831;DHT22;397;50.564;7.272;2023-04-16T14:36:35;14.10;99.90
831;DHT22;397;50.564;7.272;2023-04-16T14:39:03;13.90;99.90
831;DHT22;397;50.564;7.272;2023-04-16T14:41:30;14.00;99.90
831;DHT22;397;50.564;7.272;2023-04-16T14:43:58;14.10;99.90
831;DHT22;397;50.564;7.272;2023-04-16T14:46:26;13.90;99.90
831;DHT22;397;50.564;7.272;2023-04-16T14:48:53;13.90;99.90
831;DHT22;397;50.564;7.272;2023-04-16T14:51:21;14.00;99.90
831;DHT22;397;50.564;7.272;2023-04-16T14:53:48;13.90;99.90
831;DHT22;397;50.564;7.272;2023-04-16T14:56:16;13.90;99.90
831;DHT22;397;50.564;7.272;2023-04-16T14:58:43;14.00;99.90
831;DHT22;397;50.564;7.272;2023-04-16T15:01:11;14.10;99.90
831;DHT22;397;50.564;7.272;2023-04-16T15:03:40;14.10;99.90
831;DHT22;397;50.564;7.272;2023-04-16T15:06:08;14.10;99.90
831;DHT22;397;50.564;7.272;2023-04-16T15:08:36;14.10;99.90
831;DHT22;397;50.564;7.272;2023-04-16T15:11:03;14.00;99.90
831;DHT22;397;50.564;7.272;2023-04-16T15:13:31;14.10;99.90
831;DHT22;397;50.564;7.272;2023-04-16T15:16:02;14.10;99.90
831;DHT22;397;50.564;7.272;2023-04-16T15:18:31;14.10;99.90
831;DHT22;397;50.564;7.272;2023-04-16T15:20:59;14.10;99.90
831;DHT22;397;50.564;7.272;2023-04-16T15:23:26;14.10;99.90
831;DHT22;397;50.564;7.272;2023-04-16T15:25:54;14.00;99.90
831;DHT22;397;50.564;7.272;2023-04-16T15:28:21;13.90;99.90
831;DHT22;397;50.564;7.272;2023-04-16T15:30:49;14.00;99.90
831;DHT22;397;50.564;7.272;2023-04-16T15:33:19;13.80;99.90
831;DHT22;397;50.564;7.272;2023-04-16T15:35:47;13.80;99.90
831;DHT22;397;50.564;7.272;2023-04-16T15:38:17;13.80;99.90
831;DHT22;397;50.564;7.272;2023-04-16T15:40:46;13.60;99.90
831;DHT22;397;50.564;7.272;2023-04-16T15:43:15;13.60;99.90
831;DHT22;397;50.564;7.272;2023-04-16T15:45:42;13.50;99.90
831;DHT22;397;50.564;7.272;2023-04-16T15:48:10;13.40;99.90
831;DHT22;397;50.564;7.272;2023-04-16T15:50:37;13.20;99.90
831;DHT22;397;50.564;7.272;2023-04-16T15:53:05;13.20;99.90
831;DHT22;397;50.564;7.272;2023-04-16T15:55:33;13.20;99.90
831;DHT22;397;50.564;7.272;2023-04-16T15:58:01;13.20;99.90
831;DHT22;397;50.564;7.272;2023-04-16T16:00:29;13.10;99.90
831;DHT22;397;50.564;7.272;2023-04-16T16:02:56;13.20;99.90
831;DHT22;397;50.564;7.272;2023-04-16T16:05:24;13.20;99.90
831;DHT22;397;50.564;7.272;2023-04-16T16:07:51;13.20;99.90
831;DHT22;397;50.564;7.272;2023-04-16T16:10:19;13.20;99.90
831;DHT22;397;50.564;7.272;2023-04-16T16:12:46;13.30;99.90
831;DHT22;397;50.564;7.272;2023-04-16T16:15:14;13.40;99.90
831;DHT22;397;50.564;7.272;2023-04-16T16:17:42;13.40;99.90
831;DHT22;397;50.564;7.272;2023-04-16T16:20:09;13.40;99.90
831;DHT22;397;50.564;7.272;2023-04-16T16:22:38;13.40;99.90
831;DHT22;397;50.564;7.272;2023-04-16T16:25:07;13.50;99.90
831;DHT22;397;50.564;7.272;2023-04-16T16:27:35;13.50;99.90
831;DHT22;397;50.564;7.272;2023-04-16T16:30:03;13.60;99.90
831;DHT22;397;50.564;7.272;2023-04-16T16:32:32;13.50;99.90
831;DHT22;397;50.564;7.272;2023-04-16T16:35:00;13.50;99.90
831;DHT22;397;50.564;7.272;2023-04-16T16:37:28;13.40;99.90
831;DHT22;397;50.564;7.272;2023-04-16T16:39:55;13.40;99.90
831;DHT22;397;50.564;7.272;2023-04-16T16:42:23;13.30;99.90
831;DHT22;397;50.564;7.272;2023-04-16T16:44:51;13.40;99.90
831;DHT22;397;50.564;7.272;2023-04-16T16:47:19;13.30;99.90
831;DHT22;397;50.564;7.272;2023-04-16T16:50:06;13.20;99.90
831;DHT22;397;50.564;7.272;2023-04-16T16:52:35;13.10;99.90
831;DHT22;397;50.564;7.272;2023-04-16T16:55:04;13.10;99.90
831;DHT22;397;50.564;7.272;2023-04-16T16:57:34;13.10;99.90